sensor_id;sensor_type;location;lat;lon;timestamp;pressure;altitude;pressure_sealevel;temperature;humidity
54465;BME280;40374;49.480;20.016;2023-04-07T00:00:28;94742.50;;;-0.50;100.00
54465;BME280;40374;49.480;20.016;2023-04-07T00:03:15;94737.63;;;-0.53;100.00
54465;BME280;40374;49.480;20.016;2023-04-07T00:05:46;94732.19;;;-0.58;100.00
54465;BME280;40374;49.480;20.016;2023-04-07T00:08:14;94740.97;;;-0.64;100.00
54465;BME280;40374;49.480;20.016;2023-04-07T00:10:41;94738.88;;;-0.55;100.00
54465;BME280;40374;49.480;20.016;2023-04-07T00:13:09;94734.34;;;-0.48;100.00
54465;BME280;40374;49.480;20.016;2023-04-07T00:15:36;94735.56;;;-0.51;100.00
54465;BME280;40374;49.480;20.016;2023-04-07T00:18:04;94737.94;;;-0.43;100.00
54465;BME280;40374;49.480;20.016;2023-04-07T00:20:32;94729.50;;;-0.51;100.00
54465;BME280;40374;49.480;20.016;2023-04-07T00:22:59;94729.06;;;-0.48;100.00
54465;BME280;40374;49.480;20.016;2023-04-07T00:25:26;94727.88;;;-0.52;100.00
54465;BME280;40374;49.480;20.016;2023-04-07T00:27:54;94715.38;;;-0.64;100.00
54465;BME280;40374;49.480;20.016;2023-04-07T00:30:21;94720.59;;;-0.57;100.00
54465;BME280;40374;49.480;20.016;2023-04-07T00:32:48;94714.09;;;-0.54;100.00
54465;BME280;40374;49.480;20.016;2023-04-07T00:35:18;94716.50;;;-0.53;100.00
54465;BME280;40374;49.480;20.016;2023-04-07T00:37:46;94711.78;;;-0.69;100.00
54465;BME280;40374;49.480;20.016;2023-04-07T00:40:13;94706.78;;;-0.59;100.00
54465;BME280;40374;49.480;20.016;2023-04-07T00:42:40;94703.28;;;-0.53;100.00
54465;BME280;40374;49.480;20.016;2023-04-07T00:45:08;94712.41;;;-0.49;100.00
54465;BME280;40374;49.480;20.016;2023-04-07T00:47:37;94698.03;;;-0.34;100.00
54465;BME280;40374;49.480;20.016;2023-04-07T00:50:05;94698.34;;;-0.24;100.00
54465;BME280;40374;49.480;20.016;2023-04-07T00:52:33;94694.53;;;-0.28;100.00
54465;BME280;40374;49.480;20.016;2023-04-07T00:55:00;94700.69;;;-0.34;100.00
54465;BME280;40374;49.480;20.016;2023-04-07T00:57:28;94696.44;;;-0.35;100.00
54465;BME280;40374;49.480;20.016;2023-04-07T00:59:55;94695.19;;;-0.33;100.00
54465;BME280;40374;49.480;20.016;2023-04-07T01:02:32;94689.97;;;-0.21;100.00
54465;BME280;40374;49.480;20.016;2023-04-07T01:08:53;94686.91;;;-0.18;100.00
54465;BME280;40374;49.480;20.016;2023-04-07T01:11:43;94681.63;;;-0.18;100.00
54465;BME280;40374;49.480;20.016;2023-04-07T01:14:25;94669.34;;;-0.31;100.00
54465;BME280;40374;49.480;20.016;2023-04-07T01:17:04;94671.63;;;-0.34;100.00
54465;BME280;40374;49.480;20.016;2023-04-07T01:19:38;94667.19;;;-0.41;100.00
54465;BME280;40374;49.480;20.016;2023-04-07T01:22:13;94673.97;;;-0.26;100.00
54465;BME280;40374;49.480;20.016;2023-04-07T01:30:23;94671.19;;;-0.31;100.00
54465;BME280;40374;49.480;20.016;2023-04-07T01:32:58;94669.88;;;-0.22;100.00
54465;BME280;40374;49.480;20.016;2023-04-07T01:35:31;94680.00;;;-0.19;100.00
54465;BME280;40374;49.480;20.016;2023-04-07T01:38:00;94665.09;;;-0.32;100.00
54465;BME280;40374;49.480;20.016;2023-04-07T01:40:28;94651.22;;;-0.27;100.00
54465;BME280;40374;49.480;20.016;2023-04-07T01:42:58;94650.06;;;-0.31;100.00
54465;BME280;40374;49.480;20.016;2023-04-07T01:45:27;94652.97;;;-0.39;100.00
54465;BME280;40374;49.480;20.016;2023-04-07T01:47:56;94646.44;;;-0.37;100.00
54465;BME280;40374;49.480;20.016;2023-04-07T01:50:24;94645.13;;;-0.28;100.00
54465;BME280;40374;49.480;20.016;2023-04-07T01:52:52;94658.25;;;-0.21;100.00
54465;BME280;40374;49.480;20.016;2023-04-07T01:55:21;94655.91;;;-0.11;100.00
54465;BME280;40374;49.480;20.016;2023-04-07T01:58:06;94662.97;;;-0.05;100.00
54465;BME280;40374;49.480;20.016;2023-04-07T02:00:36;94668.19;;;-0.16;100.00
54465;BME280;40374;49.480;20.016;2023-04-07T02:03:21;94647.25;;;-0.18;100.00
54465;BME280;40374;49.480;20.016;2023-04-07T02:05:53;94655.41;;;-0.19;100.00
54465;BME280;40374;49.480;20.016;2023-04-07T02:08:27;94642.94;;;-0.31;100.00
54465;BME280;40374;49.480;20.016;2023-04-07T02:10:59;94632.94;;;-0.29;100.00
54465;BME280;40374;49.480;20.016;2023-04-07T02:13:34;94648.72;;;-0.22;100.00
54465;BME280;40374;49.480;20.016;2023-04-07T02:16:05;94662.97;;;-0.23;100.00
54465;BME280;40374;49.480;20.016;2023-04-07T02:18:33;94653.72;;;-0.32;100.00
54465;BME280;40374;49.480;20.016;2023-04-07T02:21:02;94657.41;;;-0.33;100.00
54465;BME280;40374;49.480;20.016;2023-04-07T02:23:34;94652.75;;;-0.38;100.00
54465;BME280;40374;49.480;20.016;2023-04-07T02:26:01;94669.03;;;-0.41;100.00
54465;BME280;40374;49.480;20.016;2023-04-07T02:28:29;94655.03;;;-0.42;100.00
54465;BME280;40374;49.480;20.016;2023-04-07T02:30:56;94652.22;;;-0.47;100.00
54465;BME280;40374;49.480;20.016;2023-04-07T02:33:24;94650.44;;;-0.53;100.00
54465;BME280;40374;49.480;20.016;2023-04-07T02:35:51;94663.16;;;-0.43;100.00
54465;BME280;40374;49.480;20.016;2023-04-07T02:38:20;94655.03;;;-0.42;100.00
54465;BME280;40374;49.480;20.016;2023-04-07T02:40:47;94644.53;;;-0.48;100.00
54465;BME280;40374;49.480;20.016;2023-04-07T02:43:15;94658.41;;;-0.34;100.00
54465;BME280;40374;49.480;20.016;2023-04-07T02:45:43;94650.16;;;-0.45;100.00
54465;BME280;40374;49.480;20.016;2023-04-07T02:48:11;94655.38;;;-0.38;100.00
54465;BME280;40374;49.480;20.016;2023-04-07T02:50:38;94657.81;;;-0.36;100.00
54465;BME280;40374;49.480;20.016;2023-04-07T02:53:08;94659.38;;;-0.29;100.00
54465;BME280;40374;49.480;20.016;2023-04-07T02:55:36;94653.88;;;-0.27;100.00
54465;BME280;40374;49.480;20.016;2023-04-07T02:58:03;94654.47;;;-0.25;100.00
54465;BME280;40374;49.480;20.016;2023-04-07T03:00:41;94648.22;;;-0.31;100.00
54465;BME280;40374;49.480;20.016;2023-04-07T03:03:15;94654.09;;;-0.10;100.00
54465;BME280;40374;49.480;20.016;2023-04-07T03:05:54;94655.31;;;0.06;100.00
54465;BME280;40374;49.480;20.016;2023-04-07T03:08:23;94658.41;;;0.03;100.00
54465;BME280;40374;49.480;20.016;2023-04-07T03:10:50;94646.97;;;-0.10;100.00
54465;BME280;40374;49.480;20.016;2023-04-07T03:13:23;94646.38;;;-0.12;100.00
54465;BME280;40374;49.480;20.016;2023-04-07T03:15:51;94646.22;;;-0.17;100.00
54465;BME280;40374;49.480;20.016;2023-04-07T03:18:19;94648.44;;;-0.14;100.00
54465;BME280;40374;49.480;20.016;2023-04-07T03:20:49;94648.28;;;-0.01;100.00
54465;BME280;40374;49.480;20.016;2023-04-07T03:23:19;94645.00;;;-0.14;100.00
54465;BME280;40374;49.480;20.016;2023-04-07T03:25:46;94653.06;;;-0.09;100.00
54465;BME280;40374;49.480;20.016;2023-04-07T03:28:15;94657.66;;;-0.05;100.00
54465;BME280;40374;49.480;20.016;2023-04-07T03:30:43;94664.72;;;0.02;100.00
54465;BME280;40374;49.480;20.016;2023-04-07T03:33:10;94655.31;;;0.06;100.00
54465;BME280;40374;49.480;20.016;2023-04-07T03:35:38;94647.25;;;0.01;100.00
54465;BME280;40374;49.480;20.016;2023-04-07T03:38:07;94652.63;;;-0.06;100.00
54465;BME280;40374;49.480;20.016;2023-04-07T03:40:35;94647.25;;;-0.18;100.00
54465;BME280;40374;49.480;20.016;2023-04-07T03:43:03;94634.34;;;-0.26;100.00
54465;BME280;40374;49.480;20.016;2023-04-07T03:45:32;94635.66;;;-0.17;100.00
54465;BME280;40374;49.480;20.016;2023-04-07T03:48:00;94642.72;;;-0.29;100.00
54465;BME280;40374;49.480;20.016;2023-04-07T03:50:28;94645.50;;;-0.24;100.00
54465;BME280;40374;49.480;20.016;2023-04-07T03:53:11;94641.09;;;-0.30;100.00
54465;BME280;40374;49.480;20.016;2023-04-07T03:55:42;94645.34;;;-0.29;100.00
54465;BME280;40374;49.480;20.016;2023-04-07T03:58:19;94645.94;;;-0.27;100.00
54465;BME280;40374;49.480;20.016;2023-04-07T04:00:47;94644.03;;;-0.20;100.00
54465;BME280;40374;49.480;20.016;2023-04-07T04:03:15;94648.84;;;-0.17;100.00
54465;BME280;40374;49.480;20.016;2023-04-07T04:06:01;94661.66;;;-0.14;100.00
54465;BME280;40374;49.480;20.016;2023-04-07T04:08:31;94667.03;;;-0.02;100.00
54465;BME280;40374;49.480;20.016;2023-04-07T04:10:58;94666.47;;;0.08;100.00
54465;BME280;40374;49.480;20.016;2023-04-07T04:13:32;94660.81;;;0.04;100.00
54465;BME280;40374;49.480;20.016;2023-04-07T04:16:03;94667.22;;;-0.04;100.00
54465;BME280;40374;49.480;20.016;2023-04-07T04:18:31;94668.53;;;-0.13;100.00
54465;BME280;40374;49.480;20.016;2023-04-07T04:20:58;94679.69;;;-0.11;100.00
54465;BME280;40374;49.480;20.016;2023-04-07T04:23:26;94673.81;;;-0.13;100.00
54465;BME280;40374;49.480;20.016;2023-04-07T04:25:55;94666.78;;;-0.19;100.00
54465;BME280;40374;49.480;20.016;2023-04-07T04:28:24;94667.38;;;-0.35;100.00
54465;BME280;40374;49.480;20.016;2023-04-07T04:30:52;94648.88;;;-0.35;100.00
54465;BME280;40374;49.480;20.016;2023-04-07T04:33:19;94656.56;;;-0.34;100.00
54465;BME280;40374;49.480;20.016;2023-04-07T04:35:52;94655.75;;;-0.34;100.00
54465;BME280;40374;49.480;20.016;2023-04-07T04:38:21;94665.16;;;-0.20;100.00
54465;BME280;40374;49.480;20.016;2023-04-07T04:40:56;94670.59;;;-0.15;100.00
54465;BME280;40374;49.480;20.016;2023-04-07T04:43:28;94658.13;;;-0.26;100.00
54465;BME280;40374;49.480;20.016;2023-04-07T04:45:55;94664.72;;;-0.17;100.00
54465;BME280;40374;49.480;20.016;2023-04-07T04:48:26;94664.66;;;-0.10;100.00
54465;BME280;40374;49.480;20.016;2023-04-07T04:50:53;94672.81;;;0.07;100.00
54465;BME280;40374;49.480;20.016;2023-04-07T04:53:23;94667.06;;;0.10;100.00
54465;BME280;40374;49.480;20.016;2023-04-07T04:55:55;94665.00;;;0.12;100.00
54465;BME280;40374;49.480;20.016;2023-04-07T04:58:34;94652.25;;;0.09;100.00
54465;BME280;40374;49.480;20.016;2023-04-07T05:01:01;94662.53;;;0.17;100.00
54465;BME280;40374;49.480;20.016;2023-04-07T05:03:40;94662.53;;;0.17;100.00
54465;BME280;40374;49.480;20.016;2023-04-07T05:06:19;94659.25;;;0.33;100.00
54465;BME280;40374;49.480;20.016;2023-04-07T05:08:50;94649.19;;;0.42;100.00
54465;BME280;40374;49.480;20.016;2023-04-07T05:11:21;94651.84;;;0.42;100.00
54465;BME280;40374;49.480;20.016;2023-04-07T05:13:51;94656.13;;;0.55;100.00
54465;BME280;40374;49.480;20.016;2023-04-07T05:16:22;94657.69;;;0.74;100.00
54465;BME280;40374;49.480;20.016;2023-04-07T05:18:50;94672.78;;;0.86;100.00
54465;BME280;40374;49.480;20.016;2023-04-07T05:21:18;94666.72;;;0.97;100.00
54465;BME280;40374;49.480;20.016;2023-04-07T05:23:52;94665.56;;;0.93;100.00
54465;BME280;40374;49.480;20.016;2023-04-07T05:26:24;94661.19;;;0.87;100.00
54465;BME280;40374;49.480;20.016;2023-04-07T05:28:53;94666.47;;;0.87;100.00
54465;BME280;40374;49.480;20.016;2023-04-07T05:31:23;94658.84;;;0.78;100.00
54465;BME280;40374;49.480;20.016;2023-04-07T05:33:54;94668.06;;;0.88;100.00
54465;BME280;40374;49.480;20.016;2023-04-07T05:36:24;94671.13;;;0.73;100.00
54465;BME280;40374;49.480;20.016;2023-04-07T05:38:55;94648.00;;;0.68;100.00
54465;BME280;40374;49.480;20.016;2023-04-07T05:41:22;94658.84;;;0.78;100.00
54465;BME280;40374;49.480;20.016;2023-04-07T05:43:50;94659.38;;;0.69;100.00
54465;BME280;40374;49.480;20.016;2023-04-07T05:46:17;94658.22;;;0.65;100.00
54465;BME280;40374;49.480;20.016;2023-04-07T05:48:51;94672.88;;;0.79;100.00
54465;BME280;40374;49.480;20.016;2023-04-07T05:51:19;94674.63;;;0.85;100.00
54465;BME280;40374;49.480;20.016;2023-04-07T05:53:48;94678.09;;;0.86;100.00
54465;BME280;40374;49.480;20.016;2023-04-07T05:56:17;94671.03;;;0.79;100.00
54465;BME280;40374;49.480;20.016;2023-04-07T05:58:46;94667.50;;;0.86;100.00
54465;BME280;40374;49.480;20.016;2023-04-07T06:01:15;94663.97;;;1.04;100.00
54465;BME280;40374;49.480;20.016;2023-04-07T06:03:42;94660.56;;;1.27;100.00
54465;BME280;40374;49.480;20.016;2023-04-07T06:06:22;94675.44;;;1.51;100.00
54465;BME280;40374;49.480;20.016;2023-04-07T06:08:49;94654.69;;;1.48;100.00
54465;BME280;40374;49.480;20.016;2023-04-07T06:11:17;94633.84;;;1.40;100.00
54465;BME280;40374;49.480;20.016;2023-04-07T06:13:44;94647.66;;;1.18;100.00
54465;BME280;40374;49.480;20.016;2023-04-07T06:16:13;94649.38;;;1.13;100.00
54465;BME280;40374;49.480;20.016;2023-04-07T06:18:41;94659.63;;;1.09;100.00
54465;BME280;40374;49.480;20.016;2023-04-07T06:21:10;94667.09;;;1.12;100.00
54465;BME280;40374;49.480;20.016;2023-04-07T06:23:38;94663.91;;;1.22;100.00
54465;BME280;40374;49.480;20.016;2023-04-07T06:26:09;94657.91;;;1.50;100.00
54465;BME280;40374;49.480;20.016;2023-04-07T06:28:37;94628.31;;;1.41;100.00
54465;BME280;40374;49.480;20.016;2023-04-07T06:31:06;94647.66;;;1.66;100.00
54465;BME280;40374;49.480;20.016;2023-04-07T06:33:36;94654.81;;;1.77;100.00
54465;BME280;40374;49.480;20.016;2023-04-07T06:36:03;94638.81;;;1.60;100.00
54465;BME280;40374;49.480;20.016;2023-04-07T06:38:31;94643.16;;;1.54;100.00
54465;BME280;40374;49.480;20.016;2023-04-07T06:40:59;94654.59;;;1.43;100.00
54465;BME280;40374;49.480;20.016;2023-04-07T06:43:27;94647.22;;;1.45;100.00
54465;BME280;40374;49.480;20.016;2023-04-07T06:46:00;94653.09;;;1.47;100.00
54465;BME280;40374;49.480;20.016;2023-04-07T06:48:27;94645.00;;;1.66;100.00
54465;BME280;40374;49.480;20.016;2023-04-07T06:50:55;94645.00;;;1.66;100.00
54465;BME280;40374;49.480;20.016;2023-04-07T06:53:22;94649.06;;;1.68;100.00
54465;BME280;40374;49.480;20.016;2023-04-07T06:56:02;94647.84;;;1.99;100.00
54465;BME280;40374;49.480;20.016;2023-04-07T06:58:30;94648.09;;;1.86;100.00
54465;BME280;40374;49.480;20.016;2023-04-07T07:00:57;94647.75;;;1.94;100.00
54465;BME280;40374;49.480;20.016;2023-04-07T07:03:25;94652.19;;;2.06;100.00
54465;BME280;40374;49.480;20.016;2023-04-07T07:05:58;94649.75;;;2.28;100.00
54465;BME280;40374;49.480;20.016;2023-04-07T07:08:26;94647.44;;;2.31;100.00
54465;BME280;40374;49.480;20.016;2023-04-07T07:10:54;94642.13;;;2.31;100.00
54465;BME280;40374;49.480;20.016;2023-04-07T07:13:24;94642.56;;;2.40;100.00
54465;BME280;40374;49.480;20.016;2023-04-07T07:15:54;94656.44;;;2.59;100.00
54465;BME280;40374;49.480;20.016;2023-04-07T07:18:22;94645.16;;;2.52;100.00
54465;BME280;40374;49.480;20.016;2023-04-07T07:20:49;94664.19;;;2.60;100.00
54465;BME280;40374;49.480;20.016;2023-04-07T07:23:17;94669.66;;;2.71;100.00
54465;BME280;40374;49.480;20.016;2023-04-07T07:25:44;94660.66;;;2.72;100.00
54465;BME280;40374;49.480;20.016;2023-04-07T07:28:12;94669.56;;;2.66;100.00
54465;BME280;40374;49.480;20.016;2023-04-07T07:30:40;94670.72;;;2.70;100.00
54465;BME280;40374;49.480;20.016;2023-04-07T07:33:07;94673.94;;;2.72;100.00
54465;BME280;40374;49.480;20.016;2023-04-07T07:35:39;94669.13;;;2.85;100.00
54465;BME280;40374;49.480;20.016;2023-04-07T07:38:07;94678.91;;;2.97;100.00
54465;BME280;40374;49.480;20.016;2023-04-07T07:40:34;94677.38;;;3.01;100.00
54465;BME280;40374;49.480;20.016;2023-04-07T07:43:01;94675.94;;;3.10;100.00
54465;BME280;40374;49.480;20.016;2023-04-07T07:45:29;94678.78;;;3.20;100.00
54465;BME280;40374;49.480;20.016;2023-04-07T07:47:56;94677.97;;;3.20;100.00
54465;BME280;40374;49.480;20.016;2023-04-07T07:50:24;94672.00;;;3.30;100.00
54465;BME280;40374;49.480;20.016;2023-04-07T07:52:51;94676.50;;;3.29;100.00
54465;BME280;40374;49.480;20.016;2023-04-07T07:55:24;94678.53;;;3.39;100.00
54465;BME280;40374;49.480;20.016;2023-04-07T07:57:52;94665.97;;;3.34;100.00
54465;BME280;40374;49.480;20.016;2023-04-07T08:00:19;94675.16;;;3.27;100.00
54465;BME280;40374;49.480;20.016;2023-04-07T08:02:47;94681.59;;;3.31;100.00
54465;BME280;40374;49.480;20.016;2023-04-07T08:05:15;94675.72;;;3.29;100.00
54465;BME280;40374;49.480;20.016;2023-04-07T08:07:42;94680.81;;;3.30;100.00
54465;BME280;40374;49.480;20.016;2023-04-07T08:10:10;94670.56;;;3.39;100.00
54465;BME280;40374;49.480;20.016;2023-04-07T08:12:37;94672.25;;;3.45;100.00
54465;BME280;40374;49.480;20.016;2023-04-07T08:15:05;94663.97;;;3.41;100.00
54465;BME280;40374;49.480;20.016;2023-04-07T08:17:36;94665.09;;;3.45;100.00
54465;BME280;40374;49.480;20.016;2023-04-07T08:20:04;94666.69;;;3.63;100.00
54465;BME280;40374;49.480;20.016;2023-04-07T08:22:32;94682.56;;;3.58;100.00
54465;BME280;40374;49.480;20.016;2023-04-07T08:25:00;94679.44;;;3.61;100.00
54465;BME280;40374;49.480;20.016;2023-04-07T08:27:27;94682.16;;;3.66;100.00
54465;BME280;40374;49.480;20.016;2023-04-07T08:30:03;94675.88;;;3.73;100.00
54465;BME280;40374;49.480;20.016;2023-04-07T08:32:37;94679.25;;;3.68;100.00
54465;BME280;40374;49.480;20.016;2023-04-07T08:35:05;94678.78;;;3.54;100.00
54465;BME280;40374;49.480;20.016;2023-04-07T08:37:34;94679.91;;;3.58;100.00
54465;BME280;40374;49.480;20.016;2023-04-07T08:40:03;94687.25;;;3.68;100.00
54465;BME280;40374;49.480;20.016;2023-04-07T08:42:32;94674.38;;;3.82;100.00
54465;BME280;40374;49.480;20.016;2023-04-07T08:45:03;94671.63;;;3.94;100.00
54465;BME280;40374;49.480;20.016;2023-04-07T08:47:32;94667.75;;;4.01;100.00
54465;BME280;40374;49.480;20.016;2023-04-07T08:50:02;94669.56;;;4.18;100.00
54465;BME280;40374;49.480;20.016;2023-04-07T08:52:38;94671.34;;;4.34;100.00
54465;BME280;40374;49.480;20.016;2023-04-07T08:55:07;94675.09;;;4.33;100.00
54465;BME280;40374;49.480;20.016;2023-04-07T08:57:35;94666.16;;;4.44;100.00
54465;BME280;40374;49.480;20.016;2023-04-07T09:00:04;94674.38;;;4.65;100.00
54465;BME280;40374;49.480;20.016;2023-04-07T09:02:36;94667.06;;;4.77;100.00
54465;BME280;40374;49.480;20.016;2023-04-07T09:05:07;94652.22;;;4.86;100.00
54465;BME280;40374;49.480;20.016;2023-04-07T09:07:36;94655.09;;;5.07;100.00
54465;BME280;40374;49.480;20.016;2023-04-07T09:10:05;94650.34;;;5.14;100.00
54465;BME280;40374;49.480;20.016;2023-04-07T09:12:33;94650.41;;;5.19;100.00
54465;BME280;40374;49.480;20.016;2023-04-07T09:15:01;94660.31;;;5.24;100.00
54465;BME280;40374;49.480;20.016;2023-04-07T09:17:28;94655.63;;;5.36;100.00
54465;BME280;40374;49.480;20.016;2023-04-07T09:19:57;94641.53;;;5.41;100.00
54465;BME280;40374;49.480;20.016;2023-04-07T09:22:38;94650.59;;;5.40;100.00
54465;BME280;40374;49.480;20.016;2023-04-07T09:27:59;94642.84;;;5.38;100.00
54465;BME280;40374;49.480;20.016;2023-04-07T09:30:29;94651.38;;;5.40;100.00
54465;BME280;40374;49.480;20.016;2023-04-07T09:32:57;94652.44;;;5.39;100.00
54465;BME280;40374;49.480;20.016;2023-04-07T09:35:25;94652.50;;;5.49;100.00
54465;BME280;40374;49.480;20.016;2023-04-07T09:40:30;94640.56;;;5.57;100.00
54465;BME280;40374;49.480;20.016;2023-04-07T09:42:58;94628.88;;;5.63;100.00
54465;BME280;40374;49.480;20.016;2023-04-07T09:45:27;94642.13;;;5.90;100.00
54465;BME280;40374;49.480;20.016;2023-04-07T09:47:57;94634.38;;;5.94;100.00
54465;BME280;40374;49.480;20.016;2023-04-07T09:50:37;94640.91;;;6.03;100.00
54465;BME280;40374;49.480;20.016;2023-04-07T09:53:05;94646.72;;;5.95;100.00
54465;BME280;40374;49.480;20.016;2023-04-07T09:55:34;94643.97;;;5.85;100.00
54465;BME280;40374;49.480;20.016;2023-04-07T09:58:03;94654.53;;;5.69;100.00
54465;BME280;40374;49.480;20.016;2023-04-07T10:00:31;94642.69;;;5.55;100.00
54465;BME280;40374;49.480;20.016;2023-04-07T10:02:59;94646.34;;;5.44;100.00
54465;BME280;40374;49.480;20.016;2023-04-07T10:05:27;94640.63;;;5.30;100.00
54465;BME280;40374;49.480;20.016;2023-04-07T10:07:55;94648.97;;;5.39;100.00
54465;BME280;40374;49.480;20.016;2023-04-07T10:10:23;94639.09;;;5.39;100.00
54465;BME280;40374;49.480;20.016;2023-04-07T10:12:53;94637.59;;;5.54;100.00
54465;BME280;40374;49.480;20.016;2023-04-07T10:15:25;94658.94;;;5.54;100.00
54465;BME280;40374;49.480;20.016;2023-04-07T10:17:52;94657.31;;;5.47;100.00
54465;BME280;40374;49.480;20.016;2023-04-07T10:20:23;94651.09;;;5.37;100.00
54465;BME280;40374;49.480;20.016;2023-04-07T10:22:51;94644.75;;;5.11;100.00
54465;BME280;40374;49.480;20.016;2023-04-07T10:25:23;94649.53;;;5.08;100.00
54465;BME280;40374;49.480;20.016;2023-04-07T10:27:58;94643.75;;;5.22;100.00
54465;BME280;40374;49.480;20.016;2023-04-07T10:30:29;94633.97;;;5.33;100.00
54465;BME280;40374;49.480;20.016;2023-04-07T10:32:57;94645.03;;;5.46;100.00
54465;BME280;40374;49.480;20.016;2023-04-07T10:35:25;94658.47;;;5.57;100.00
54465;BME280;40374;49.480;20.016;2023-04-07T10:40:35;94650.88;;;5.43;100.00
54465;BME280;40374;49.480;20.016;2023-04-07T10:43:06;94631.66;;;5.09;100.00
54465;BME280;40374;49.480;20.016;2023-04-07T10:48:16;94641.66;;;5.24;100.00
54465;BME280;40374;49.480;20.016;2023-04-07T10:53:33;94641.28;;;5.47;100.00
54465;BME280;40374;49.480;20.016;2023-04-07T10:56:01;94635.38;;;5.40;100.00
54465;BME280;40374;49.480;20.016;2023-04-07T10:58:32;94643.47;;;5.51;100.00
54465;BME280;40374;49.480;20.016;2023-04-07T11:03:29;94636.91;;;5.31;100.00
54465;BME280;40374;49.480;20.016;2023-04-07T11:06:05;94632.94;;;5.34;100.00
54465;BME280;40374;49.480;20.016;2023-04-07T11:08:39;94630.75;;;5.25;100.00
54465;BME280;40374;49.480;20.016;2023-04-07T11:11:10;94650.59;;;5.40;100.00
54465;BME280;40374;49.480;20.016;2023-04-07T11:13:42;94643.41;;;5.45;100.00
54465;BME280;40374;49.480;20.016;2023-04-07T11:16:12;94650.06;;;5.43;100.00
54465;BME280;40374;49.480;20.016;2023-04-07T11:18:43;94644.63;;;5.27;100.00
54465;BME280;40374;49.480;20.016;2023-04-07T11:21:16;94650.72;;;5.23;100.00
54465;BME280;40374;49.480;20.016;2023-04-07T11:23:45;94644.28;;;5.19;100.00
54465;BME280;40374;49.480;20.016;2023-04-07T11:26:14;94653.09;;;5.19;100.00
54465;BME280;40374;49.480;20.016;2023-04-07T11:28:50;94649.34;;;5.20;100.00
54465;BME280;40374;49.480;20.016;2023-04-07T11:31:27;94654.78;;;5.03;100.00
54465;BME280;40374;49.480;20.016;2023-04-07T11:33:59;94650.44;;;4.92;100.00
54465;BME280;40374;49.480;20.016;2023-04-07T11:36:33;94645.78;;;4.82;100.00
54465;BME280;40374;49.480;20.016;2023-04-07T11:39:01;94656.41;;;4.77;100.00
54465;BME280;40374;49.480;20.016;2023-04-07T11:41:31;94654.97;;;4.92;100.00
54465;BME280;40374;49.480;20.016;2023-04-07T11:44:09;94656.69;;;5.08;100.00
54465;BME280;40374;49.480;20.016;2023-04-07T11:46:58;94651.44;;;5.13;100.00
54465;BME280;40374;49.480;20.016;2023-04-07T11:49:26;94653.03;;;5.14;100.00
54465;BME280;40374;49.480;20.016;2023-04-07T11:52:03;94657.09;;;5.22;100.00
54465;BME280;40374;49.480;20.016;2023-04-07T11:54:57;94652.00;;;5.20;100.00
54465;BME280;40374;49.480;20.016;2023-04-07T11:57:27;94643.38;;;5.08;100.00
54465;BME280;40374;49.480;20.016;2023-04-07T12:00:05;94646.59;;;5.10;100.00
54465;BME280;40374;49.480;20.016;2023-04-07T12:02:35;94656.56;;;4.93;100.00
54465;BME280;40374;49.480;20.016;2023-04-07T12:05:03;94643.19;;;4.87;100.00
54465;BME280;40374;49.480;20.016;2023-04-07T12:07:31;94649.47;;;4.76;100.00
54465;BME280;40374;49.480;20.016;2023-04-07T12:10:20;94644.53;;;4.90;100.00
54465;BME280;40374;49.480;20.016;2023-04-07T12:12:48;94647.69;;;4.87;100.00
54465;BME280;40374;49.480;20.016;2023-04-07T12:15:16;94639.34;;;4.78;100.00
54465;BME280;40374;49.480;20.016;2023-04-07T12:17:45;94645.59;;;4.89;100.00
54465;BME280;40374;49.480;20.016;2023-04-07T12:20:14;94643.22;;;4.93;100.00
54465;BME280;40374;49.480;20.016;2023-04-07T12:22:42;94632.44;;;4.77;100.00
54465;BME280;40374;49.480;20.016;2023-04-07T12:25:09;94634.88;;;4.84;100.00
54465;BME280;40374;49.480;20.016;2023-04-07T12:27:37;94641.25;;;4.83;100.00
54465;BME280;40374;49.480;20.016;2023-04-07T12:30:10;94641.53;;;4.81;100.00
54465;BME280;40374;49.480;20.016;2023-04-07T12:32:39;94639.72;;;4.87;100.00
54465;BME280;40374;49.480;20.016;2023-04-07T12:35:07;94639.97;;;4.85;100.00
54465;BME280;40374;49.480;20.016;2023-04-07T12:37:34;94633.53;;;4.81;100.00
54465;BME280;40374;49.480;20.016;2023-04-07T12:40:02;94638.91;;;4.86;100.00
54465;BME280;40374;49.480;20.016;2023-04-07T12:42:29;94636.34;;;4.97;100.00
54465;BME280;40374;49.480;20.016;2023-04-07T12:44:57;94628.03;;;4.93;100.00
54465;BME280;40374;49.480;20.016;2023-04-07T12:47:24;94641.78;;;5.07;100.00
54465;BME280;40374;49.480;20.016;2023-04-07T12:49:52;94644.47;;;5.12;100.00
54465;BME280;40374;49.480;20.016;2023-04-07T12:52:19;94650.34;;;5.14;100.00
54465;BME280;40374;49.480;20.016;2023-04-07T12:54:47;94649.81;;;5.12;100.00
54465;BME280;40374;49.480;20.016;2023-04-07T12:57:15;94647.06;;;5.02;100.00
54465;BME280;40374;49.480;20.016;2023-04-07T12:59:42;94651.41;;;4.81;100.00
54465;BME280;40374;49.480;20.016;2023-04-07T13:02:11;94654.53;;;4.78;100.00
54465;BME280;40374;49.480;20.016;2023-04-07T13:04:39;94664.06;;;4.68;100.00
54465;BME280;40374;49.480;20.016;2023-04-07T13:07:09;94652.53;;;4.63;100.00
54465;BME280;40374;49.480;20.016;2023-04-07T13:09:37;94660.41;;;4.53;100.00
54465;BME280;40374;49.480;20.016;2023-04-07T13:12:05;94643.25;;;4.43;100.00
54465;BME280;40374;49.480;20.016;2023-04-07T13:14:32;94656.03;;;4.41;100.00
54465;BME280;40374;49.480;20.016;2023-04-07T13:17:00;94647.66;;;4.33;100.00
54465;BME280;40374;49.480;20.016;2023-04-07T13:19:28;94653.09;;;4.21;100.00
54465;BME280;40374;49.480;20.016;2023-04-07T13:21:59;94653.41;;;4.24;100.00
54465;BME280;40374;49.480;20.016;2023-04-07T13:24:32;94656.81;;;4.20;100.00
54465;BME280;40374;49.480;20.016;2023-04-07T13:27:01;94661.56;;;4.18;100.00